Time;durP1;ratioP1;P1;durP2;ratioP2;P2;SDS_P1;SDS_P2;PMS_P1;PMS_P2;Temp;Humidity;BMP_temperature;BMP_pressure;BME280_temperature;BME280_humidity;BME280_pressure;Samples;Min_cycle;Max_cycle;Signal;HPM_P1;HPM_P2
2023/01/23 00:02:30;;;;;;;6.15;5.03;;;;;;;;;;8253730;28;20184;-75
2023/01/23 00:06:30;;;;;;;6.67;4.97;;;;;;;;;;8254931;28;20776;-75
2023/01/23 00:10:30;;;;;;;7.28;5.53;;;;;;;;;;8251142;28;20879;-75
2023/01/23 00:14:31;;;;;;;6.80;5.45;;;;;;;;;;8250571;28;20481;-74
2023/01/23 00:18:31;;;;;;;8.65;6.18;;;;;;;;;;8230151;28;20046;-75
2023/01/23 00:22:31;;;;;;;6.90;5.55;;;;;;;;;;8232570;28;20108;-75
2023/01/23 00:26:32;;;;;;;8.20;5.70;;;;;;;;;;8253312;28;20107;-74
2023/01/23 00:30:32;;;;;;;8.05;5.40;;;;;;;;;;8230267;28;20972;-75
2023/01/23 00:34:33;;;;;;;9.27;6.03;;;;;;;;;;8250294;28;20057;-75
2023/01/23 00:38:33;;;;;;;10.38;5.82;;;;;;;;;;8240090;28;20029;-74
2023/01/23 00:42:33;;;;;;;6.95;5.60;;;;;;;;;;8240822;28;20517;-74
2023/01/23 00:46:33;;;;;;;8.02;5.70;;;;;;;;;;8249992;28;20510;-74
2023/01/23 00:50:33;;;;;;;8.45;5.82;;;;;;;;;;8251541;28;20025;-75
2023/01/23 00:54:34;;;;;;;9.07;6.22;;;;;;;;;;8234649;28;20069;-75
2023/01/23 00:58:34;;;;;;;8.25;6.05;;;;;;;;;;8251508;28;20033;-75
2023/01/23 01:02:34;;;;;;;7.65;5.78;;;;;;;;;;8249225;28;20042;-74
2023/01/23 01:06:34;;;;;;;7.82;5.95;;;;;;;;;;8253022;28;20034;-75
2023/01/23 01:10:35;;;;;;;7.32;5.40;;;;;;;;;;8249818;28;20034;-74
2023/01/23 01:14:35;;;;;;;7.00;5.18;;;;;;;;;;8249050;28;20030;-74
2023/01/23 01:18:35;;;;;;;6.57;5.72;;;;;;;;;;8246682;28;20052;-75
2023/01/23 01:22:35;;;;;;;6.78;5.32;;;;;;;;;;8248554;28;20033;-74
2023/01/23 01:26:35;;;;;;;8.30;5.85;;;;;;;;;;8233938;28;20013;-74
2023/01/23 01:30:36;;;;;;;7.40;5.35;;;;;;;;;;8249550;28;20034;-75
2023/01/23 01:34:36;;;;;;;6.97;5.47;;;;;;;;;;8248919;28;20473;-75
2023/01/23 01:38:36;;;;;;;8.10;5.53;;;;;;;;;;8250238;28;20103;-75
2023/01/23 01:42:44;;;;;;;7.35;5.75;;;;;;;;;;8250301;28;20297;-74
2023/01/23 01:46:45;;;;;;;7.43;5.80;;;;;;;;;;8248635;28;20034;-74
2023/01/23 01:50:45;;;;;;;7.47;6.07;;;;;;;;;;8250462;28;20976;-75
2023/01/23 01:54:47;;;;;;;9.67;6.60;;;;;;;;;;8223311;28;20073;-75
2023/01/23 01:58:50;;;;;;;9.20;5.07;;;;;;;;;;8248064;28;20343;-75
2023/01/23 02:02:53;;;;;;;7.35;5.80;;;;;;;;;;8232487;28;20052;-75
2023/01/23 02:06:54;;;;;;;7.10;5.65;;;;;;;;;;8250145;28;20430;-74
2023/01/23 02:10:54;;;;;;;8.45;5.63;;;;;;;;;;8240503;28;20018;-74
2023/01/23 02:14:55;;;;;;;9.60;6.60;;;;;;;;;;8250377;28;20033;-74
2023/01/23 02:18:59;;;;;;;9.00;6.50;;;;;;;;;;8248736;28;20034;-74
2023/01/23 02:23:19;;;;;;;9.05;6.53;;;;;;;;;;8255369;28;20640;-75
2023/01/23 02:27:19;;;;;;;9.90;6.80;;;;;;;;;;8255001;28;20168;-74
2023/01/23 02:31:20;;;;;;;9.05;6.40;;;;;;;;;;8254729;28;20132;-75
2023/01/23 02:35:29;;;;;;;9.52;7.15;;;;;;;;;;8255330;28;20029;-75
2023/01/23 02:39:30;;;;;;;10.40;7.03;;;;;;;;;;8256340;28;20065;-74
2023/01/23 02:43:34;;;;;;;10.48;7.07;;;;;;;;;;8255343;28;20099;-75
2023/01/23 02:47:34;;;;;;;9.83;6.80;;;;;;;;;;8255685;28;20125;-75
2023/01/23 02:51:34;;;;;;;10.95;7.70;;;;;;;;;;8253415;28;20058;-75
2023/01/23 02:55:38;;;;;;;9.77;6.55;;;;;;;;;;8255862;28;20029;-75
2023/01/23 03:04:02;;;;;;;9.18;6.70;;;;;;;;;;8253278;28;20119;-75
2023/01/23 03:08:03;;;;;;;10.40;7.28;;;;;;;;;;8254083;28;20322;-75
2023/01/23 03:12:03;;;;;;;10.90;7.93;;;;;;;;;;8222971;28;20723;-74
2023/01/23 03:16:04;;;;;;;9.13;6.73;;;;;;;;;;8254835;28;20116;-75
2023/01/23 03:20:06;;;;;;;8.65;6.22;;;;;;;;;;8240978;28;20869;-75
2023/01/23 03:24:07;;;;;;;10.02;7.20;;;;;;;;;;8254352;28;20153;-74
2023/01/23 03:30:11;;;;;;;9.20;6.93;;;;;;;;;;8253443;28;20374;-74
2023/01/23 03:32:28;;;;;;;9.25;6.22;;;;;;;;;;8254247;28;20153;-75
2023/01/23 03:36:28;;;;;;;8.93;6.65;;;;;;;;;;8237048;28;20057;-75
2023/01/23 03:44:47;;;;;;;9.27;6.53;;;;;;;;;;8253208;28;20793;-75
2023/01/23 03:48:48;;;;;;;11.30;7.30;;;;;;;;;;8252442;28;20160;-75
2023/01/23 03:52:48;;;;;;;10.95;7.68;;;;;;;;;;8230048;28;20065;-74
2023/01/23 03:56:48;;;;;;;11.50;6.93;;;;;;;;;;8254194;28;20048;-75
2023/01/23 04:00:48;;;;;;;10.57;7.63;;;;;;;;;;8232408;28;20038;-75
2023/01/23 04:04:48;;;;;;;9.82;7.15;;;;;;;;;;8253750;28;20141;-74
2023/01/23 04:08:48;;;;;;;11.75;7.32;;;;;;;;;;8252371;28;20581;-74
2023/01/23 04:12:49;;;;;;;9.95;7.32;;;;;;;;;;8253035;28;20552;-74
2023/01/23 04:16:49;;;;;;;10.95;7.43;;;;;;;;;;8251712;28;20038;-75
2023/01/23 04:20:49;;;;;;;9.87;6.50;;;;;;;;;;8250511;28;20646;-74
2023/01/23 04:24:49;;;;;;;11.45;6.75;;;;;;;;;;8253069;28;21023;-74
2023/01/23 04:28:50;;;;;;;9.75;6.90;;;;;;;;;;8251691;28;20056;-74
2023/01/23 04:32:50;;;;;;;10.13;7.07;;;;;;;;;;8252498;28;20042;-74
2023/01/23 04:36:50;;;;;;;10.77;6.87;;;;;;;;;;8234670;28;20033;-74
2023/01/23 04:40:50;;;;;;;7.55;6.00;;;;;;;;;;8251601;28;20272;-74
2023/01/23 04:44:50;;;;;;;9.15;6.00;;;;;;;;;;8251644;28;20564;-74
2023/01/23 04:48:51;;;;;;;10.32;6.82;;;;;;;;;;8250245;28;20062;-75
2023/01/23 04:52:51;;;;;;;8.77;6.07;;;;;;;;;;8249941;28;20033;-75
2023/01/23 04:56:51;;;;;;;9.07;6.10;;;;;;;;;;8251305;28;20152;-74
2023/01/23 05:00:52;;;;;;;8.80;5.93;;;;;;;;;;8250557;28;20030;-75
2023/01/23 05:04:52;;;;;;;8.68;5.85;;;;;;;;;;8249262;28;20136;-75
2023/01/23 05:08:53;;;;;;;8.25;6.38;;;;;;;;;;8249440;28;20054;-74
2023/01/23 05:12:53;;;;;;;8.05;5.57;;;;;;;;;;8252467;28;20029;-75
2023/01/23 05:16:53;;;;;;;8.05;5.68;;;;;;;;;;8251202;28;20048;-74
2023/01/23 05:20:53;;;;;;;7.60;5.20;;;;;;;;;;8250498;28;20095;-75
2023/01/23 05:24:53;;;;;;;7.20;5.65;;;;;;;;;;8233378;28;20033;-76
2023/01/23 05:28:53;;;;;;;9.65;6.13;;;;;;;;;;8250202;28;20021;-75
2023/01/23 05:32:53;;;;;;;8.00;5.88;;;;;;;;;;8232162;28;20124;-75
2023/01/23 05:36:54;;;;;;;7.13;5.50;;;;;;;;;;8251912;28;20026;-74
2023/01/23 05:40:54;;;;;;;7.07;5.25;;;;;;;;;;8248710;28;20352;-74
2023/01/23 05:44:54;;;;;;;8.68;5.53;;;;;;;;;;8246933;28;20773;-74
2023/01/23 05:48:54;;;;;;;8.05;5.28;;;;;;;;;;8235782;28;20026;-74
2023/01/23 05:52:54;;;;;;;8.15;5.82;;;;;;;;;;8251659;28;20065;-74
2023/01/23 05:56:55;;;;;;;10.82;6.68;;;;;;;;;;8252569;28;20410;-74
2023/01/23 06:00:55;;;;;;;10.13;6.35;;;;;;;;;;8255503;28;20659;-74
2023/01/23 06:04:55;;;;;;;8.57;6.20;;;;;;;;;;8237055;28;20018;-74
2023/01/23 06:08:57;;;;;;;9.73;5.82;;;;;;;;;;8255375;28;20707;-74
2023/01/23 06:12:57;;;;;;;9.55;6.47;;;;;;;;;;8256100;28;20030;-74
2023/01/23 06:16:57;;;;;;;9.63;6.30;;;;;;;;;;8254399;28;20049;-74
2023/01/23 06:20:58;;;;;;;9.35;6.13;;;;;;;;;;8236963;28;20030;-74
2023/01/23 06:24:59;;;;;;;8.13;5.63;;;;;;;;;;8256863;28;20064;-74
2023/01/23 06:28:59;;;;;;;7.90;5.85;;;;;;;;;;8252203;28;20026;-74
2023/01/23 06:32:59;;;;;;;8.02;5.38;;;;;;;;;;8243520;28;20037;-75
2023/01/23 06:36:59;;;;;;;7.35;6.07;;;;;;;;;;8255857;28;20876;-75
2023/01/23 06:40:59;;;;;;;8.63;6.13;;;;;;;;;;8242352;28;21129;-74
2023/01/23 06:45:00;;;;;;;6.95;5.65;;;;;;;;;;8254688;28;20453;-74
2023/01/23 06:49:00;;;;;;;8.30;5.75;;;;;;;;;;8251189;28;20034;-75
2023/01/23 06:53:00;;;;;;;8.98;5.95;;;;;;;;;;8255848;28;20764;-74
2023/01/23 06:57:00;;;;;;;6.88;5.28;;;;;;;;;;8238067;28;20060;-75
2023/01/23 07:01:08;;;;;;;10.20;6.07;;;;;;;;;;8254524;28;20045;-74
2023/01/23 07:05:09;;;;;;;6.60;5.05;;;;;;;;;;8254635;28;20110;-74
2023/01/23 07:09:10;;;;;;;8.00;5.72;;;;;;;;;;8241313;28;20080;-74
2023/01/23 07:13:10;;;;;;;9.27;5.68;;;;;;;;;;8254067;28;20458;-74
2023/01/23 07:17:10;;;;;;;7.25;5.57;;;;;;;;;;8253775;28;20123;-74
2023/01/23 07:21:11;;;;;;;6.55;4.80;;;;;;;;;;8252168;28;20748;-74
2023/01/23 07:25:11;;;;;;;6.13;4.57;;;;;;;;;;8254043;28;20026;-75
2023/01/23 07:29:11;;;;;;;7.18;5.20;;;;;;;;;;8252280;28;20996;-75
2023/01/23 07:33:11;;;;;;;7.32;4.97;;;;;;;;;;8235765;28;20038;-75
2023/01/23 07:37:11;;;;;;;7.30;5.32;;;;;;;;;;8252755;28;20037;-75
2023/01/23 07:41:11;;;;;;;7.25;5.95;;;;;;;;;;8249986;28;20045;-76
2023/01/23 07:45:12;;;;;;;7.43;5.40;;;;;;;;;;8253773;28;20044;-75
2023/01/23 07:49:12;;;;;;;5.90;5.20;;;;;;;;;;8252775;28;20018;-75
2023/01/23 07:53:12;;;;;;;6.07;4.88;;;;;;;;;;8254861;28;20037;-76
2023/01/23 07:57:13;;;;;;;6.03;4.57;;;;;;;;;;8240436;28;20624;-75
2023/01/23 08:01:13;;;;;;;6.18;4.75;;;;;;;;;;8252460;28;20052;-75
2023/01/23 08:05:13;;;;;;;7.10;4.75;;;;;;;;;;8253906;28;20037;-75
2023/01/23 08:09:13;;;;;;;7.50;5.32;;;;;;;;;;8250725;28;20037;-75
2023/01/23 08:13:13;;;;;;;6.75;4.97;;;;;;;;;;8251697;28;20049;-74
2023/01/23 08:17:14;;;;;;;7.78;5.22;;;;;;;;;;8232478;28;20684;-75
2023/01/23 08:21:14;;;;;;;6.72;5.15;;;;;;;;;;8250214;28;20682;-75
2023/01/23 08:25:14;;;;;;;21.98;5.43;;;;;;;;;;8233490;28;20026;-75
2023/01/23 08:29:14;;;;;;;7.07;4.80;;;;;;;;;;8252017;28;20018;-75
2023/01/23 08:33:15;;;;;;;8.50;5.28;;;;;;;;;;8237936;28;20482;-75
2023/01/23 08:37:15;;;;;;;7.30;5.03;;;;;;;;;;8233949;28;20254;-75
2023/01/23 08:41:15;;;;;;;8.82;4.90;;;;;;;;;;8251282;28;20037;-75
2023/01/23 08:45:15;;;;;;;6.43;4.53;;;;;;;;;;8249818;28;20033;-75
2023/01/23 08:49:18;;;;;;;7.05;5.05;;;;;;;;;;8250639;28;20284;-76
2023/01/23 08:53:18;;;;;;;6.10;4.65;;;;;;;;;;8239169;28;20033;-75
2023/01/23 08:57:18;;;;;;;6.93;5.25;;;;;;;;;;8249713;28;20092;-75
2023/01/23 09:01:20;;;;;;;7.03;5.20;;;;;;;;;;8250764;28;20180;-75
2023/01/23 09:05:20;;;;;;;7.22;5.57;;;;;;;;;;8251024;28;21062;-75
2023/01/23 09:09:20;;;;;;;7.20;5.35;;;;;;;;;;8248938;28;20052;-75
2023/01/23 09:13:20;;;;;;;6.78;5.28;;;;;;;;;;8248611;28;20731;-75
2023/01/23 09:17:20;;;;;;;7.05;4.93;;;;;;;;;;8250160;28;20070;-75
2023/01/23 09:21:21;;;;;;;6.32;4.78;;;;;;;;;;8231496;28;20036;-75
2023/01/23 09:25:21;;;;;;;6.13;4.65;;;;;;;;;;8231731;28;20026;-76
2023/01/23 09:29:21;;;;;;;7.10;5.03;;;;;;;;;;8248533;28;20018;-75
2023/01/23 09:33:25;;;;;;;6.15;4.60;;;;;;;;;;8231302;28;20034;-75
2023/01/23 09:37:28;;;;;;;6.30;4.80;;;;;;;;;;8250788;28;20042;-75
2023/01/23 09:41:28;;;;;;;4.85;4.13;;;;;;;;;;8243100;28;20033;-75
2023/01/23 09:45:29;;;;;;;5.18;4.35;;;;;;;;;;8249612;28;20041;-75
2023/01/23 09:49:32;;;;;;;5.70;4.57;;;;;;;;;;8247894;28;20925;-75
2023/01/23 09:53:37;;;;;;;5.60;4.40;;;;;;;;;;8249203;28;20033;-76
2023/01/23 09:57:42;;;;;;;5.22;4.25;;;;;;;;;;8249241;28;21847;-75
2023/01/23 10:01:42;;;;;;;6.28;5.05;;;;;;;;;;8249367;28;20030;-75
2023/01/23 10:05:54;;;;;;;6.32;4.72;;;;;;;;;;8246961;28;20601;-75
2023/01/23 10:10:01;;;;;;;5.70;4.97;;;;;;;;;;8249820;28;20319;-75
2023/01/23 10:14:09;;;;;;;5.28;4.50;;;;;;;;;;8224420;28;20022;-76
2023/01/23 10:18:17;;;;;;;7.03;4.70;;;;;;;;;;8249293;28;20130;-75
2023/01/23 10:22:34;;;;;;;6.50;4.85;;;;;;;;;;8249861;28;20155;-75
2023/01/23 10:26:40;;;;;;;6.40;4.75;;;;;;;;;;8233194;28;20053;-75
2023/01/23 10:30:40;;;;;;;5.80;4.65;;;;;;;;;;8249574;28;20103;-75
2023/01/23 10:34:52;;;;;;;5.88;4.88;;;;;;;;;;8246325;28;20034;-75
2023/01/23 10:38:58;;;;;;;7.35;4.90;;;;;;;;;;8249378;28;20030;-75
2023/01/23 10:43:01;;;;;;;7.20;4.78;;;;;;;;;;8251772;28;20833;-75
2023/01/23 10:47:03;;;;;;;8.95;5.60;;;;;;;;;;8252329;28;20061;-75
2023/01/23 10:51:03;;;;;;;6.50;5.10;;;;;;;;;;8252860;28;20042;-75
2023/01/23 10:55:05;;;;;;;6.90;5.03;;;;;;;;;;8238342;28;20184;-75
2023/01/23 10:59:06;;;;;;;6.00;4.40;;;;;;;;;;8251673;28;20732;-75
2023/01/23 11:03:18;;;;;;;5.90;4.55;;;;;;;;;;8251505;28;20406;-75
2023/01/23 11:07:21;;;;;;;7.32;5.38;;;;;;;;;;8235581;28;20026;-75
2023/01/23 11:11:23;;;;;;;6.15;5.13;;;;;;;;;;8252909;28;20014;-76
2023/01/23 11:15:24;;;;;;;6.00;4.55;;;;;;;;;;8254034;28;20113;-75
2023/01/23 11:19:24;;;;;;;6.67;4.47;;;;;;;;;;8252667;28;21032;-75
2023/01/23 11:23:24;;;;;;;7.28;4.68;;;;;;;;;;8251312;28;21506;-75
2023/01/23 11:27:26;;;;;;;5.88;4.60;;;;;;;;;;8251742;28;20021;-75
2023/01/23 11:31:27;;;;;;;5.10;4.43;;;;;;;;;;8251466;28;20987;-75
2023/01/23 11:35:33;;;;;;;5.35;4.20;;;;;;;;;;8252549;28;20610;-75
2023/01/23 11:39:40;;;;;;;6.07;4.38;;;;;;;;;;8233041;28;20037;-75
2023/01/23 11:43:41;;;;;;;5.75;4.35;;;;;;;;;;8252540;28;20160;-75
2023/01/23 11:47:48;;;;;;;6.43;4.45;;;;;;;;;;8250974;28;20490;-75
2023/01/23 11:52:05;;;;;;;5.88;4.65;;;;;;;;;;8249450;28;20270;-75
2023/01/23 11:56:09;;;;;;;5.05;3.97;;;;;;;;;;8234482;28;20124;-76
2023/01/23 12:00:12;;;;;;;6.72;4.50;;;;;;;;;;8248443;28;21073;-76
2023/01/23 12:04:35;;;;;;;6.70;4.60;;;;;;;;;;8251833;28;20029;-76
2023/01/23 12:08:41;;;;;;;5.00;4.03;;;;;;;;;;8243609;28;20502;-76
2023/01/23 12:12:51;;;;;;;5.00;4.00;;;;;;;;;;8231973;28;20294;-76
2023/01/23 12:16:51;;;;;;;4.57;3.97;;;;;;;;;;8252172;28;20710;-75
2023/01/23 12:21:14;;;;;;;5.85;4.57;;;;;;;;;;8232989;28;20029;-75
2023/01/23 12:25:25;;;;;;;5.55;4.30;;;;;;;;;;8231865;28;20051;-75
2023/01/23 12:29:25;;;;;;;6.38;3.90;;;;;;;;;;8250316;28;20030;-76
2023/01/23 12:33:47;;;;;;;5.70;4.15;;;;;;;;;;8248889;28;20705;-76
2023/01/23 12:38:06;;;;;;;5.07;3.97;;;;;;;;;;8248902;28;20022;-76
2023/01/23 12:42:14;;;;;;;5.93;4.53;;;;;;;;;;8232475;28;20406;-76
2023/01/23 12:46:17;;;;;;;7.10;5.20;;;;;;;;;;8245808;28;20046;-75
2023/01/23 12:50:20;;;;;;;6.13;5.13;;;;;;;;;;8232542;28;20136;-75
2023/01/23 12:54:26;;;;;;;6.55;5.32;;;;;;;;;;8248373;28;20096;-76
2023/01/23 12:58:28;;;;;;;7.30;5.57;;;;;;;;;;8250127;28;20113;-76
2023/01/23 13:02:31;;;;;;;8.48;5.90;;;;;;;;;;8251174;28;20052;-76
2023/01/23 13:06:42;;;;;;;6.72;5.45;;;;;;;;;;8251834;28;20672;-75
2023/01/23 13:15:16;;;;;;;6.00;5.15;;;;;;;;;;8250449;28;20053;-75
2023/01/23 13:23:43;;;;;;;8.05;5.55;;;;;;;;;;8250831;28;20209;-75
2023/01/23 13:27:50;;;;;;;6.65;5.40;;;;;;;;;;8250070;28;20061;-74
2023/01/23 13:31:55;;;;;;;6.57;5.22;;;;;;;;;;8248050;28;20050;-76
2023/01/23 13:35:58;;;;;;;6.95;5.22;;;;;;;;;;8247440;28;20029;-75
2023/01/23 13:40:13;;;;;;;5.97;4.80;;;;;;;;;;8249814;28;20045;-75
2023/01/23 13:44:23;;;;;;;5.88;5.13;;;;;;;;;;8232888;28;20601;-75
2023/01/23 13:57:31;;;;;;;5.75;4.80;;;;;;;;;;8251576;28;20220;-75
2023/01/23 14:06:02;;;;;;;7.47;4.75;;;;;;;;;;8251345;28;20814;-75
2023/01/23 14:10:02;;;;;;;6.60;4.75;;;;;;;;;;8252549;28;20028;-75
2023/01/23 14:18:33;;;;;;;6.93;5.28;;;;;;;;;;8254318;28;20144;-73
2023/01/23 14:22:34;;;;;;;7.88;5.28;;;;;;;;;;8258182;28;20644;-75
2023/01/23 14:26:34;;;;;;;6.13;4.63;;;;;;;;;;8241398;28;20066;-77
2023/01/23 14:30:34;;;;;;;5.63;4.65;;;;;;;;;;8237036;28;20048;-75
2023/01/23 14:34:37;;;;;;;7.03;5.00;;;;;;;;;;8261198;28;20034;-75
2023/01/23 14:38:38;;;;;;;4.72;4.20;;;;;;;;;;8259339;28;20592;-74
2023/01/23 14:42:39;;;;;;;5.88;4.75;;;;;;;;;;8241262;28;20025;-75
2023/01/23 14:46:39;;;;;;;6.15;4.88;;;;;;;;;;8255055;28;20034;-76
2023/01/23 14:50:39;;;;;;;6.93;5.10;;;;;;;;;;8251032;28;20030;-75
2023/01/23 14:54:42;;;;;;;5.55;4.53;;;;;;;;;;8243357;28;20032;-75
2023/01/23 14:58:43;;;;;;;5.15;4.32;;;;;;;;;;8252339;28;20026;-75
2023/01/23 15:02:45;;;;;;;5.53;4.57;;;;;;;;;;8252704;28;20808;-75
2023/01/23 15:06:49;;;;;;;4.82;4.30;;;;;;;;;;8252903;28;20573;-75
2023/01/23 15:10:50;;;;;;;7.03;4.90;;;;;;;;;;8250535;28;20034;-75
2023/01/23 15:14:54;;;;;;;5.57;4.40;;;;;;;;;;8241679;28;20042;-74
2023/01/23 15:18:57;;;;;;;8.27;4.70;;;;;;;;;;8254790;28;20041;-74
2023/01/23 15:23:13;;;;;;;5.65;4.38;;;;;;;;;;8250648;28;21539;-74
2023/01/23 15:27:29;;;;;;;7.30;4.40;;;;;;;;;;8256517;28;20083;-75
2023/01/23 15:31:34;;;;;;;7.32;5.22;;;;;;;;;;8256549;28;20037;-74
2023/01/23 15:35:35;;;;;;;7.43;5.25;;;;;;;;;;8254024;28;20026;-76
2023/01/23 15:39:38;;;;;;;9.70;5.35;;;;;;;;;;8258066;28;20080;-74
2023/01/23 15:43:38;;;;;;;7.93;5.63;;;;;;;;;;8255114;28;20022;-74
2023/01/23 15:47:38;;;;;;;8.57;6.00;;;;;;;;;;8255145;28;20029;-74
2023/01/23 15:51:39;;;;;;;8.97;5.63;;;;;;;;;;8239497;28;20108;-74
2023/01/23 15:55:39;;;;;;;10.23;5.72;;;;;;;;;;8238812;28;20338;-75
2023/01/23 15:59:39;;;;;;;7.03;5.38;;;;;;;;;;8255969;28;20105;-75
2023/01/23 16:03:39;;;;;;;7.53;5.70;;;;;;;;;;8237750;28;20179;-75
2023/01/23 16:07:40;;;;;;;7.93;5.65;;;;;;;;;;8256817;28;20253;-75
2023/01/23 16:11:40;;;;;;;7.57;5.32;;;;;;;;;;8255816;28;20526;-74
2023/01/23 16:15:42;;;;;;;8.68;5.88;;;;;;;;;;8253824;28;20062;-74
2023/01/23 16:19:42;;;;;;;7.60;5.95;;;;;;;;;;8238967;28;20056;-75
2023/01/23 16:23:43;;;;;;;7.30;5.07;;;;;;;;;;8257805;28;20045;-75
2023/01/23 16:27:43;;;;;;;8.93;5.43;;;;;;;;;;8255478;28;20025;-74
2023/01/23 16:31:43;;;;;;;8.40;6.05;;;;;;;;;;8237773;28;20517;-74
2023/01/23 16:35:44;;;;;;;7.07;5.50;;;;;;;;;;8255307;28;20454;-74
2023/01/23 16:39:45;;;;;;;8.38;5.82;;;;;;;;;;8253203;28;20030;-74
2023/01/23 16:43:45;;;;;;;7.90;5.47;;;;;;;;;;8240720;28;20029;-74
2023/01/23 16:47:46;;;;;;;9.48;5.85;;;;;;;;;;8239330;28;20040;-75
2023/01/23 16:51:56;;;;;;;8.70;5.75;;;;;;;;;;8255095;28;20033;-75
2023/01/23 16:55:57;;;;;;;7.50;4.95;;;;;;;;;;8257272;28;20454;-74
2023/01/23 16:59:58;;;;;;;8.50;5.65;;;;;;;;;;8247640;28;20026;-74
2023/01/23 17:03:59;;;;;;;9.80;6.05;;;;;;;;;;8239795;28;20037;-74
2023/01/23 17:07:59;;;;;;;7.22;5.35;;;;;;;;;;8250615;28;20137;-74
2023/01/23 17:11:59;;;;;;;7.10;5.18;;;;;;;;;;8249817;28;20084;-72
2023/01/23 17:16:01;;;;;;;6.35;5.10;;;;;;;;;;8238801;28;20041;-74
2023/01/23 17:20:04;;;;;;;7.88;6.07;;;;;;;;;;8251366;28;20554;-75
2023/01/23 17:24:04;;;;;;;8.35;5.93;;;;;;;;;;8250753;28;20048;-74
2023/01/23 17:28:04;;;;;;;8.10;5.72;;;;;;;;;;8250532;28;20125;-74
2023/01/23 17:32:05;;;;;;;8.20;5.80;;;;;;;;;;8227086;28;20040;-74
2023/01/23 17:36:06;;;;;;;6.97;5.70;;;;;;;;;;8252735;28;20272;-74
2023/01/23 17:40:09;;;;;;;9.95;6.70;;;;;;;;;;8250145;28;20034;-74
2023/01/23 17:44:09;;;;;;;9.68;6.57;;;;;;;;;;8250689;28;20091;-74
2023/01/23 17:48:16;;;;;;;8.15;6.13;;;;;;;;;;8253860;28;20038;-74
2023/01/23 17:52:19;;;;;;;9.32;6.10;;;;;;;;;;8260413;28;20147;-74
2023/01/23 17:56:19;;;;;;;10.45;5.90;;;;;;;;;;8242592;28;20034;-73
2023/01/23 18:00:19;;;;;;;9.10;6.35;;;;;;;;;;8260182;28;21118;-75
2023/01/23 18:04:20;;;;;;;7.43;5.85;;;;;;;;;;8238491;28;20144;-73
2023/01/23 18:08:21;;;;;;;9.93;6.10;;;;;;;;;;8259765;28;20030;-73
2023/01/23 18:12:34;;;;;;;9.55;6.60;;;;;;;;;;8260473;28;20550;-74
2023/01/23 18:16:41;;;;;;;8.90;5.93;;;;;;;;;;8259875;28;20828;-75
2023/01/23 18:20:41;;;;;;;7.88;5.57;;;;;;;;;;8258861;28;20139;-74
2023/01/23 18:24:45;;;;;;;7.43;5.72;;;;;;;;;;8260024;28;20134;-73
2023/01/23 18:28:51;;;;;;;7.57;5.40;;;;;;;;;;8244539;28;20025;-74
2023/01/23 18:33:00;;;;;;;8.38;5.10;;;;;;;;;;8257042;28;20379;-75
2023/01/23 18:37:13;;;;;;;8.63;5.82;;;;;;;;;;8259641;28;20025;-74
2023/01/23 18:41:26;;;;;;;9.38;5.65;;;;;;;;;;8257294;28;20034;-73
2023/01/23 18:45:28;;;;;;;7.90;5.77;;;;;;;;;;8235104;28;20092;-74
2023/01/23 18:49:28;;;;;;;8.35;5.47;;;;;;;;;;8256062;28;20030;-75
2023/01/23 18:53:36;;;;;;;8.15;5.80;;;;;;;;;;8239546;28;20115;-73
2023/01/23 18:57:51;;;;;;;10.00;5.40;;;;;;;;;;8255959;28;20026;-73
2023/01/23 19:01:53;;;;;;;7.55;5.45;;;;;;;;;;8253644;28;20399;-75
2023/01/23 19:05:53;;;;;;;7.30;5.20;;;;;;;;;;8254114;28;20034;-74
2023/01/23 19:09:54;;;;;;;6.97;5.55;;;;;;;;;;8236409;28;20092;-75
2023/01/23 19:14:03;;;;;;;7.75;5.50;;;;;;;;;;8235568;28;21179;-75
2023/01/23 19:18:06;;;;;;;8.98;5.80;;;;;;;;;;8240907;28;21162;-74
2023/01/23 19:22:16;;;;;;;7.40;5.68;;;;;;;;;;8254786;28;21073;-73
2023/01/23 19:26:17;;;;;;;6.55;5.05;;;;;;;;;;8255639;28;20726;-74
2023/01/23 19:30:18;;;;;;;8.82;5.82;;;;;;;;;;8240134;28;20032;-74
2023/01/23 19:34:19;;;;;;;8.48;6.30;;;;;;;;;;8237063;28;20931;-74
2023/01/23 19:38:19;;;;;;;7.38;5.50;;;;;;;;;;8253906;28;20026;-76
2023/01/23 19:42:19;;;;;;;8.55;5.95;;;;;;;;;;8254524;28;20811;-74
2023/01/23 19:46:20;;;;;;;9.63;6.10;;;;;;;;;;8242455;28;20049;-74
2023/01/23 19:50:21;;;;;;;9.00;6.57;;;;;;;;;;8253123;28;20330;-74
2023/01/23 19:54:21;;;;;;;9.15;6.00;;;;;;;;;;8253878;28;20199;-74
2023/01/23 19:58:21;;;;;;;10.65;6.88;;;;;;;;;;8251833;28;20520;-74
2023/01/23 20:02:22;;;;;;;10.02;6.80;;;;;;;;;;8252725;28;20752;-74
2023/01/23 20:06:22;;;;;;;9.38;6.60;;;;;;;;;;8234269;28;20289;-75
2023/01/23 20:10:22;;;;;;;13.32;8.15;;;;;;;;;;8234604;28;20156;-75
2023/01/23 20:14:23;;;;;;;11.57;7.25;;;;;;;;;;8254247;28;20066;-75
2023/01/23 20:18:24;;;;;;;10.60;7.68;;;;;;;;;;8249753;28;20084;-74
2023/01/23 20:22:24;;;;;;;9.48;7.72;;;;;;;;;;8251341;28;20391;-74
2023/01/23 20:26:24;;;;;;;12.73;8.57;;;;;;;;;;8236618;28;20029;-74
2023/01/23 20:30:24;;;;;;;14.23;8.07;;;;;;;;;;8250076;28;20030;-75
2023/01/23 20:34:25;;;;;;;13.18;7.53;;;;;;;;;;8248356;28;20488;-74
2023/01/23 20:38:33;;;;;;;10.70;7.88;;;;;;;;;;8353077;28;20438;-66
2023/01/23 20:42:34;;;;;;;12.85;8.18;;;;;;;;;;8364559;28;20531;-66
2023/01/23 20:46:34;;;;;;;11.95;8.90;;;;;;;;;;8344586;28;20044;-66
2023/01/23 20:50:35;;;;;;;9.68;6.93;;;;;;;;;;8316794;28;20460;-66
2023/01/23 20:54:36;;;;;;;14.27;7.75;;;;;;;;;;8318444;28;20047;-66
2023/01/23 21:02:56;;;;;;;11.98;7.78;;;;;;;;;;8315505;28;20511;-66
2023/01/23 21:06:57;;;;;;;12.25;8.80;;;;;;;;;;8314907;28;20120;-67
2023/01/23 21:10:57;;;;;;;11.82;7.90;;;;;;;;;;8315335;28;20227;-66
2023/01/23 21:14:57;;;;;;;11.20;7.13;;;;;;;;;;8313024;28;20037;-66
2023/01/23 21:18:58;;;;;;;12.18;7.82;;;;;;;;;;8292779;28;20033;-66
2023/01/23 21:22:59;;;;;;;12.80;7.60;;;;;;;;;;8310078;28;20394;-66
2023/01/23 21:27:00;;;;;;;14.38;8.13;;;;;;;;;;8314014;28;20100;-66
2023/01/23 21:31:18;;;;;;;11.48;7.32;;;;;;;;;;8308541;28;20756;-66
2023/01/23 21:35:18;;;;;;;12.32;7.57;;;;;;;;;;8312331;28;20036;-66
2023/01/23 21:39:18;;;;;;;11.75;7.63;;;;;;;;;;8314739;28;20481;-66
2023/01/23 21:43:18;;;;;;;11.50;7.40;;;;;;;;;;8314399;28;20037;-66
2023/01/23 21:47:19;;;;;;;11.15;6.60;;;;;;;;;;8305396;28;20029;-66
2023/01/23 21:51:19;;;;;;;11.60;8.07;;;;;;;;;;8292374;28;20025;-66
2023/01/23 21:55:20;;;;;;;10.90;7.50;;;;;;;;;;8292799;28;20429;-66
2023/01/23 21:59:20;;;;;;;10.38;7.28;;;;;;;;;;8293083;28;20095;-66
2023/01/23 22:03:20;;;;;;;11.25;7.80;;;;;;;;;;8292277;28;20137;-66
2023/01/23 22:07:20;;;;;;;13.43;7.63;;;;;;;;;;8291882;28;20449;-66
2023/01/23 22:11:20;;;;;;;12.05;7.60;;;;;;;;;;8291473;28;20283;-66
2023/01/23 22:15:21;;;;;;;13.23;8.23;;;;;;;;;;8293951;28;20055;-66
2023/01/23 22:19:21;;;;;;;13.07;8.40;;;;;;;;;;8289670;28;20756;-66
2023/01/23 22:23:22;;;;;;;12.23;8.13;;;;;;;;;;8291234;28;20272;-66
2023/01/23 22:27:22;;;;;;;12.98;8.45;;;;;;;;;;8291871;28;20029;-66
2023/01/23 22:31:22;;;;;;;14.32;8.77;;;;;;;;;;8289383;28;20040;-66
2023/01/23 22:35:22;;;;;;;12.50;8.38;;;;;;;;;;8290529;28;20021;-66
2023/01/23 22:39:22;;;;;;;12.15;7.90;;;;;;;;;;8290815;28;20390;-66
2023/01/23 22:43:23;;;;;;;11.30;7.45;;;;;;;;;;8291681;28;20108;-66
2023/01/23 22:47:23;;;;;;;9.95;7.07;;;;;;;;;;8289782;28;20036;-66
2023/01/23 22:51:24;;;;;;;12.07;7.65;;;;;;;;;;8290545;28;20025;-66
2023/01/23 22:55:24;;;;;;;13.27;7.57;;;;;;;;;;8290895;28;20660;-66
2023/01/23 22:59:25;;;;;;;12.30;7.80;;;;;;;;;;8291179;28;20033;-66
2023/01/23 23:03:26;;;;;;;14.18;7.93;;;;;;;;;;8288284;28;20033;-66
2023/01/23 23:07:26;;;;;;;12.85;7.80;;;;;;;;;;8289713;28;20214;-66
2023/01/23 23:11:27;;;;;;;15.77;8.18;;;;;;;;;;8290825;28;20099;-67
2023/01/23 23:15:27;;;;;;;12.65;8.27;;;;;;;;;;8290279;28;20452;-66
2023/01/23 23:19:27;;;;;;;11.93;7.97;;;;;;;;;;8290255;28;20026;-66
2023/01/23 23:23:27;;;;;;;14.07;8.00;;;;;;;;;;8282302;28;20056;-66
2023/01/23 23:27:27;;;;;;;14.73;8.90;;;;;;;;;;8290282;28;20079;-66
2023/01/23 23:31:28;;;;;;;12.35;8.27;;;;;;;;;;8285865;28;20096;-66
2023/01/23 23:35:28;;;;;;;12.00;8.37;;;;;;;;;;8279758;28;20032;-66
2023/01/23 23:39:28;;;;;;;13.50;8.50;;;;;;;;;;8281047;28;20256;-66
2023/01/23 23:43:28;;;;;;;13.68;8.20;;;;;;;;;;8278441;28;20103;-66
2023/01/23 23:47:29;;;;;;;16.90;8.57;;;;;;;;;;8280497;28;20669;-66
2023/01/23 23:51:29;;;;;;;14.18;8.15;;;;;;;;;;8282736;28;20728;-66
2023/01/23 23:55:30;;;;;;;11.45;7.75;;;;;;;;;;8283948;28;20057;-65
2023/01/23 23:59:30;;;;;;;12.95;7.75;;;;;;;;;;8281113;28;20280;-66
